Capt. Shelby House — WDC6536 — position and weather

sailwx.info

Track history (hours):
 
Tides and Currents Weather Stations Pressure Air Temp Water Temp Dewpoint Dewpoint Depression Visibility Wind Speed Wind Dir Waves Ship Positions

Capt. Shelby House

Owner: American Commercial Lines LLC, Jeffersonville, IN. More information available from US FCC via Universal Licensing System and Coast Guard Vessel Documentation Center.

Last reported at 2017-Nov-10 07:12 UTC. Time now 2017-Nov-17 23:15 UTC.
Position N 32°47' W 091°09'.

Length 48 m; draft 3.1 m.

Type: Towing. MMSI: 367057630.

Date/timePositionNaut miles runAvg speedWind from/ knotsBaromVisibWave heightAir tempDewpointWater temp
2017-Nov-10 07:12N 32°47' W 091°09'2 4.0
2017-Nov-10 06:48N 32°45' W 091°09'5 3.3
2017-Nov-10 05:24N 32°44' W 091°04'5 3.4
2017-Nov-10 03:57N 32°40' W 091°08'2 3.8
2017-Nov-10 03:26N 32°39' W 091°09'2 3.6
2017-Nov-10 03:00N 32°37' W 091°09'2 4.3
2017-Nov-10 02:30N 32°35' W 091°08'2 4.6
2017-Nov-10 02:00N 32°34' W 091°06'2 3.8
2017-Nov-10 01:28N 32°31' W 091°06'0 0.3
2017-Nov-10 01:00N 32°31' W 091°06'0 0.0
2017-Nov-10 00:30N 32°31' W 091°06'1 1.1
2017-Nov-10 00:00N 32°31' W 091°07'1 2.0
2017-Nov-09 23:30N 32°30' W 091°07'2 4.0
2017-Nov-09 23:00N 32°28' W 091°06'2 4.4
2017-Nov-09 22:30N 32°27' W 091°04'2 4.3
2017-Nov-09 22:00N 32°26' W 091°02'2 4.3
2017-Nov-09 21:30N 32°25' W 090°60'2 3.6
2017-Nov-09 21:00N 32°23' W 090°60'2 3.5
2017-Nov-09 20:30N 32°21' W 090°60'2 4.5
2017-Nov-09 20:00N 32°21' W 090°57'2 4.3
2017-Nov-09 19:30N 32°21' W 090°55'2 3.7
2017-Nov-09 19:00N 32°19' W 090°54'1 1.6
2017-Nov-09 18:30N 32°18' W 090°55'0 0.1
2017-Nov-09 18:00N 32°18' W 090°55'0 0.0
2017-Nov-09 17:30N 32°18' W 090°55'0 0.1
2017-Nov-09 17:00N 32°18' W 090°55'1 1.1
2017-Nov-09 16:30N 32°18' W 090°56'1 1.2
2017-Nov-09 16:00N 32°17' W 090°56'2 3.1
2017-Nov-09 15:30N 32°16' W 090°58'2 3.9
2017-Nov-09 15:00N 32°15' W 090°59'2 4.9
2017-Nov-09 14:30N 32°12' W 090°59'2 4.3
2017-Nov-09 14:00N 32°10' W 090°60'2 4.5
2017-Nov-09 13:30N 32°08' W 091°00'2 4.0
2017-Nov-09 13:00N 32°07' W 091°03'2 2.7
2017-Nov-09 12:12N 32°08' W 091°05'1 3.1
2017-Nov-09 12:00N 32°08' W 091°06'2 3.6
2017-Nov-09 11:30N 32°06' W 091°06'5 4.4
2017-Nov-09 10:16N 32°01' W 091°05'  
2017-Nov-05 14:03N 31°59' W 091°06'0 8.2
2017-Nov-05 14:00N 31°60' W 091°05'6 7.3
2017-Nov-05 13:13N 32°05' W 091°05'2 9.0
2017-Nov-05 13:00N 32°07' W 091°07'3 5.0
2017-Nov-05 12:30N 32°08' W 091°04'3 6.8
2017-Nov-05 12:00N 32°09' W 091°00'4 8.5
2017-Nov-05 11:30N 32°13' W 090°59'4 8.2
2017-Nov-05 11:00N 32°17' W 090°57'4 7.7
2017-Nov-05 10:30N 32°20' W 090°54'4 7.8
2017-Nov-05 10:00N 32°21' W 090°58'3 6.2
2017-Nov-05 09:30N 32°24' W 090°59'4 7.7
2017-Nov-05 09:00N 32°26' W 091°03'4 8.3
2017-Nov-05 08:30N 32°29' W 091°07'4 8.7
2017-Nov-05 08:00N 32°33' W 091°06'4 8.3
2017-Nov-05 07:30N 32°36' W 091°09'  
Track history (hours):
 
Tides and Currents Weather Stations Pressure Air Temp Water Temp Dewpoint Dewpoint Depression Visibility Wind Speed Wind Dir Waves Ship Positions

Capt. Shelby House

Owner: American Commercial Lines LLC, Jeffersonville, IN. More information available from US FCC via Universal Licensing System and Coast Guard Vessel Documentation Center.

Last reported at 2017-Nov-10 07:12 UTC. Time now 2017-Nov-17 23:15 UTC.
Position N 32°47' W 091°09'.

Length 48 m; draft 3.1 m.

Type: Towing. MMSI: 367057630.

Date/timePositionNaut miles runAvg speedWind from/ knotsBaromVisibWave heightAir tempDewpointWater temp
2017-Nov-10 07:12N 32°47' W 091°09'2 4.0
2017-Nov-10 06:48N 32°45' W 091°09'5 3.3
2017-Nov-10 05:24N 32°44' W 091°04'5 3.4
2017-Nov-10 03:57N 32°40' W 091°08'2 3.8
2017-Nov-10 03:26N 32°39' W 091°09'2 3.6
2017-Nov-10 03:00N 32°37' W 091°09'2 4.3
2017-Nov-10 02:30N 32°35' W 091°08'2 4.6
2017-Nov-10 02:00N 32°34' W 091°06'2 3.8
2017-Nov-10 01:28N 32°31' W 091°06'0 0.3
2017-Nov-10 01:00N 32°31' W 091°06'0 0.0
2017-Nov-10 00:30N 32°31' W 091°06'1 1.1
2017-Nov-10 00:00N 32°31' W 091°07'1 2.0
2017-Nov-09 23:30N 32°30' W 091°07'2 4.0
2017-Nov-09 23:00N 32°28' W 091°06'2 4.4
2017-Nov-09 22:30N 32°27' W 091°04'2 4.3
2017-Nov-09 22:00N 32°26' W 091°02'2 4.3
2017-Nov-09 21:30N 32°25' W 090°60'2 3.6
2017-Nov-09 21:00N 32°23' W 090°60'2 3.5
2017-Nov-09 20:30N 32°21' W 090°60'2 4.5
2017-Nov-09 20:00N 32°21' W 090°57'2 4.3
2017-Nov-09 19:30N 32°21' W 090°55'2 3.7
2017-Nov-09 19:00N 32°19' W 090°54'1 1.6
2017-Nov-09 18:30N 32°18' W 090°55'0 0.1
2017-Nov-09 18:00N 32°18' W 090°55'0 0.0
2017-Nov-09 17:30N 32°18' W 090°55'0 0.1
2017-Nov-09 17:00N 32°18' W 090°55'1 1.1
2017-Nov-09 16:30N 32°18' W 090°56'1 1.2
2017-Nov-09 16:00N 32°17' W 090°56'2 3.1
2017-Nov-09 15:30N 32°16' W 090°58'2 3.9
2017-Nov-09 15:00N 32°15' W 090°59'2 4.9
2017-Nov-09 14:30N 32°12' W 090°59'2 4.3
2017-Nov-09 14:00N 32°10' W 090°60'2 4.5
2017-Nov-09 13:30N 32°08' W 091°00'2 4.0
2017-Nov-09 13:00N 32°07' W 091°03'2 2.7
2017-Nov-09 12:12N 32°08' W 091°05'1 3.1
2017-Nov-09 12:00N 32°08' W 091°06'2 3.6
2017-Nov-09 11:30N 32°06' W 091°06'5 4.4
2017-Nov-09 10:16N 32°01' W 091°05'  
2017-Nov-05 14:03N 31°59' W 091°06'0 8.2
2017-Nov-05 14:00N 31°60' W 091°05'6 7.3
2017-Nov-05 13:13N 32°05' W 091°05'2 9.0
2017-Nov-05 13:00N 32°07' W 091°07'3 5.0
2017-Nov-05 12:30N 32°08' W 091°04'3 6.8
2017-Nov-05 12:00N 32°09' W 091°00'4 8.5
2017-Nov-05 11:30N 32°13' W 090°59'4 8.2
2017-Nov-05 11:00N 32°17' W 090°57'4 7.7
2017-Nov-05 10:30N 32°20' W 090°54'4 7.8
2017-Nov-05 10:00N 32°21' W 090°58'3 6.2
2017-Nov-05 09:30N 32°24' W 090°59'4 7.7
2017-Nov-05 09:00N 32°26' W 091°03'4 8.3
2017-Nov-05 08:30N 32°29' W 091°07'4 8.7
2017-Nov-05 08:00N 32°33' W 091°06'4 8.3
2017-Nov-05 07:30N 32°36' W 091°09'  

Dump ship's entire track history